createdAt,value
2019-01-20T00:01:55.522Z,101165.21
2019-01-20T00:04:03.036Z,101166.71
2019-01-20T00:06:10.659Z,101169.61
2019-01-20T00:08:18.097Z,101165.75
2019-01-20T00:10:25.162Z,101171.36
2019-01-20T00:12:32.417Z,101169.11
2019-01-20T00:14:39.764Z,101167.42
2019-01-20T00:16:46.862Z,101167.17
2019-01-20T00:18:53.948Z,101162.24
2019-01-20T00:21:01.440Z,101163.46
2019-01-20T00:23:08.730Z,101170.33
2019-01-20T00:25:16.270Z,101165.97
2019-01-20T00:27:23.589Z,101164.31
2019-01-20T00:29:31.033Z,101167.22
2019-01-20T00:31:38.934Z,101166.38
2019-01-20T00:33:46.332Z,101159.37
2019-01-20T00:35:53.329Z,101152.58
2019-01-20T00:38:01.043Z,101156.81
2019-01-20T00:40:10.529Z,101155.47
2019-01-20T00:42:17.987Z,101145.67
2019-01-20T00:44:25.776Z,101146.16
2019-01-20T00:46:33.293Z,101147.88
2019-01-20T00:48:40.689Z,101144.40
2019-01-20T00:50:48.182Z,101146.64
2019-01-20T00:52:55.367Z,101152.86
2019-01-20T00:55:02.860Z,101155.02
2019-01-20T00:57:10.503Z,101158.30
2019-01-20T00:59:17.888Z,101153.46
2019-01-20T01:01:27.398Z,101149.30
2019-01-20T01:03:34.709Z,101145.99
2019-01-20T01:05:42.105Z,101148.50
2019-01-20T01:07:50.351Z,101148.67
2019-01-20T01:09:57.908Z,101146.05
2019-01-20T01:12:05.078Z,101148.73
2019-01-20T01:14:12.106Z,101144.23
2019-01-20T01:16:19.286Z,101140.35
2019-01-20T01:18:26.646Z,101146.63
2019-01-20T01:20:33.984Z,101145.94
2019-01-20T01:22:41.577Z,101143.02
2019-01-20T01:24:48.995Z,101143.98
2019-01-20T01:26:56.290Z,101135.17
2019-01-20T01:29:03.728Z,101141.11
2019-01-20T01:31:11.201Z,101140.91
2019-01-20T01:33:18.563Z,101134.97
2019-01-20T01:35:26.296Z,101136.94
2019-01-20T01:37:33.740Z,101136.16
2019-01-20T01:39:41.215Z,101141.27
2019-01-20T01:41:48.485Z,101144.84
2019-01-20T01:43:55.960Z,101139.50
2019-01-20T01:46:03.376Z,101136.04
2019-01-20T01:48:10.889Z,101138.40
2019-01-20T01:50:19.100Z,101129.14
2019-01-20T01:52:26.438Z,101127.86
2019-01-20T01:54:33.960Z,101128.09
2019-01-20T01:56:41.204Z,101130.59
2019-01-20T01:58:48.634Z,101128.98
2019-01-20T02:00:56.161Z,101126.58
2019-01-20T02:03:03.567Z,101123.32
2019-01-20T02:05:11.292Z,101124.23
2019-01-20T02:07:18.794Z,101118.78
2019-01-20T02:09:26.571Z,101117.48
2019-01-20T02:11:33.991Z,101115.70
2019-01-20T02:13:41.449Z,101111.59
2019-01-20T02:15:48.758Z,101122.36
2019-01-20T02:17:56.201Z,101122.52
2019-01-20T02:20:03.719Z,101121.76
2019-01-20T02:22:11.331Z,101128.61
2019-01-20T02:24:18.866Z,101122.28
2019-01-20T02:26:26.358Z,101115.24
2019-01-20T02:28:33.653Z,101119.68
2019-01-20T02:30:40.815Z,101122.63
2019-01-20T02:32:48.421Z,101119.82
2019-01-20T02:34:55.849Z,101119.11
2019-01-20T02:37:03.181Z,101117.69
2019-01-20T02:39:10.802Z,101115.34
2019-01-20T02:41:18.060Z,101116.81
2019-01-20T02:43:25.419Z,101105.75
2019-01-20T02:45:32.702Z,101105.37
2019-01-20T02:47:40.092Z,101107.95
2019-01-20T02:49:47.852Z,101105.37
2019-01-20T02:51:55.518Z,101104.52
2019-01-20T02:54:02.983Z,101099.45
2019-01-20T02:56:10.274Z,101097.02
2019-01-20T02:58:17.805Z,101099.11
2019-01-20T03:00:25.928Z,101095.25
2019-01-20T03:02:33.351Z,101095.38
2019-01-20T03:04:40.832Z,101095.81
2019-01-20T03:06:48.324Z,101089.29
2019-01-20T03:08:55.696Z,101094.62
2019-01-20T03:11:03.577Z,101088.61
2019-01-20T03:13:10.914Z,101088.73
2019-01-20T03:15:18.390Z,101085.21
2019-01-20T03:17:25.931Z,101077.11
2019-01-20T03:19:33.332Z,101086.98
2019-01-20T03:21:40.648Z,101076.15
2019-01-20T03:23:48.405Z,101069.40
2019-01-20T03:25:55.741Z,101077.95
2019-01-20T03:28:03.218Z,101069.88
2019-01-20T03:30:15.150Z,101075.84
2019-01-20T03:32:22.559Z,101071.00
2019-01-20T03:34:29.946Z,101074.43
2019-01-20T03:36:37.321Z,101065.03
2019-01-20T03:38:44.757Z,101068.07
2019-01-20T03:40:52.096Z,101064.05
2019-01-20T03:42:59.671Z,101058.08
2019-01-20T03:45:09.236Z,101066.78
2019-01-20T03:47:16.636Z,101064.80
2019-01-20T03:49:24.093Z,101064.29
2019-01-20T03:51:31.130Z,101060.34
2019-01-20T03:53:38.191Z,101064.41
2019-01-20T03:55:45.663Z,101059.64
2019-01-20T03:57:53.053Z,101060.58
2019-01-20T04:00:00.479Z,101056.59
2019-01-20T04:02:07.916Z,101056.99
2019-01-20T04:04:15.318Z,101050.83
2019-01-20T04:06:22.702Z,101056.40
2019-01-20T04:08:30.218Z,101049.53
2019-01-20T04:10:37.572Z,101050.36
2019-01-20T04:12:45.454Z,101047.03
2019-01-20T04:14:52.909Z,101045.20
2019-01-20T04:17:00.262Z,101039.54
2019-01-20T04:19:07.622Z,101039.73
2019-01-20T04:21:15.050Z,101030.55
2019-01-20T04:23:22.390Z,101030.05
2019-01-20T04:25:29.722Z,101028.28
2019-01-20T04:27:37.143Z,101030.81
2019-01-20T04:29:44.493Z,101031.19
2019-01-20T04:31:51.666Z,101030.33
2019-01-20T04:33:59.041Z,101023.58
2019-01-20T04:36:06.213Z,101021.84
2019-01-20T04:38:13.623Z,101019.16
2019-01-20T04:40:23.688Z,101024.80
2019-01-20T04:42:31.176Z,101022.11
2019-01-20T04:44:38.510Z,101022.49
2019-01-20T04:46:45.866Z,101025.28
2019-01-20T04:48:53.283Z,101021.80
2019-01-20T04:51:00.741Z,101019.48
2019-01-20T04:53:08.790Z,101016.27
2019-01-20T04:55:16.131Z,101017.84
2019-01-20T04:57:23.695Z,101027.27
2019-01-20T04:59:31.250Z,101026.75
2019-01-20T05:01:38.607Z,101027.65
2019-01-20T05:03:46.174Z,101021.84
2019-01-20T05:05:53.645Z,101020.18
2019-01-20T05:08:01.099Z,101018.76
2019-01-20T05:10:10.307Z,101018.66
2019-01-20T05:12:17.897Z,101014.79
2019-01-20T05:14:25.693Z,101019.84
2019-01-20T05:16:33.138Z,101013.69
2019-01-20T05:18:40.728Z,101015.02
2019-01-20T05:20:48.061Z,101015.06
2019-01-20T05:22:55.431Z,101008.59
2019-01-20T05:25:02.831Z,101011.48
2019-01-20T05:27:10.196Z,101018.39
2019-01-20T05:29:17.780Z,101013.16
2019-01-20T05:31:25.169Z,101010.11
2019-01-20T05:33:32.545Z,101013.08
2019-01-20T05:35:39.924Z,101008.65
2019-01-20T05:37:47.469Z,101011.27
2019-01-20T05:39:54.928Z,101013.52
2019-01-20T05:42:02.147Z,101009.52
2019-01-20T05:44:09.761Z,100999.23
2019-01-20T05:46:17.109Z,101000.90
2019-01-20T05:48:24.539Z,100997.57
2019-01-20T05:50:31.991Z,100994.86
2019-01-20T05:52:39.459Z,100997.30
2019-01-20T05:54:46.817Z,100995.02
2019-01-20T05:56:54.257Z,100991.22
2019-01-20T05:59:01.756Z,100985.59
2019-01-20T06:01:09.104Z,100993.30
2019-01-20T06:03:16.373Z,100994.37
2019-01-20T06:05:23.691Z,100992.92
2019-01-20T06:07:31.161Z,100992.45
2019-01-20T06:09:38.975Z,100999.67
2019-01-20T06:11:46.327Z,100994.12
2019-01-20T06:13:53.705Z,100993.03
2019-01-20T06:16:02.063Z,100985.38
2019-01-20T06:18:09.828Z,100989.09
2019-01-20T06:20:18.533Z,100976.23
2019-01-20T06:22:25.864Z,100985.55
2019-01-20T06:24:33.242Z,100989.51
2019-01-20T06:26:40.764Z,100998.88
2019-01-20T06:28:47.952Z,100990.75
2019-01-20T06:30:55.276Z,100993.52
2019-01-20T06:33:02.676Z,101001.38
2019-01-20T06:35:10.175Z,100997.38
2019-01-20T06:37:17.622Z,100996.30
2019-01-20T06:39:25.007Z,100987.41
2019-01-20T06:41:32.391Z,100991.80
2019-01-20T06:43:40.033Z,100985.69
2019-01-20T06:45:47.414Z,100995.80
2019-01-20T06:47:55.086Z,100993.31
2019-01-20T06:50:02.633Z,100997.16
2019-01-20T06:52:09.893Z,100997.80
2019-01-20T06:54:17.525Z,101004.70
2019-01-20T06:56:25.066Z,101000.00
2019-01-20T06:58:32.384Z,101007.43
2019-01-20T07:00:39.580Z,101008.33
2019-01-20T07:02:46.843Z,101013.36
2019-01-20T07:04:54.216Z,101013.98
2019-01-20T07:07:01.563Z,101012.38
2019-01-20T07:09:10.362Z,101012.63
2019-01-20T07:11:17.799Z,101012.98
2019-01-20T07:13:25.208Z,101006.78
2019-01-20T07:15:32.722Z,101007.58
2019-01-20T07:17:40.389Z,101010.58
2019-01-20T07:19:48.182Z,101004.75
2019-01-20T07:21:55.614Z,101008.02
2019-01-20T07:24:03.300Z,101016.67
2019-01-20T07:26:10.994Z,101002.02
2019-01-20T07:28:18.316Z,101008.23
2019-01-20T07:30:26.998Z,101006.95
2019-01-20T07:32:34.745Z,101005.45
2019-01-20T07:34:42.210Z,101002.78
2019-01-20T07:36:49.530Z,100995.89
2019-01-20T07:38:57.222Z,100996.42
2019-01-20T07:41:04.719Z,100997.38
2019-01-20T07:43:16.704Z,101002.95
2019-01-20T07:45:21.689Z,100994.80
2019-01-20T07:47:30.034Z,100996.14
2019-01-20T07:49:37.870Z,101001.00
2019-01-20T07:51:45.675Z,101005.92
2019-01-20T07:53:53.540Z,101006.14
2019-01-20T07:56:01.229Z,101006.28
2019-01-20T07:58:09.128Z,101007.56
2019-01-20T08:00:19.252Z,101008.55
2019-01-20T08:02:26.880Z,101013.22
2019-01-20T08:04:34.404Z,101015.41
2019-01-20T08:06:41.993Z,101015.65
2019-01-20T08:08:49.501Z,101009.40
2019-01-20T08:10:56.991Z,101022.69
2019-01-20T08:13:06.287Z,101022.11
2019-01-20T08:15:13.953Z,101023.39
2019-01-20T08:17:21.591Z,101021.34
2019-01-20T08:19:29.620Z,101028.35
2019-01-20T08:21:36.973Z,101021.23
2019-01-20T08:23:44.559Z,101025.70
2019-01-20T08:25:52.123Z,101016.89
2019-01-20T08:27:59.638Z,101012.64
2019-01-20T08:30:09.825Z,101017.59
2019-01-20T08:32:18.434Z,101017.25
2019-01-20T08:34:26.137Z,101013.78
2019-01-20T08:36:33.904Z,101011.42
2019-01-20T08:38:41.434Z,101017.44
2019-01-20T08:40:49.078Z,101022.31
2019-01-20T08:42:56.754Z,101025.45
2019-01-20T08:45:04.412Z,101023.60
2019-01-20T08:47:21.618Z,101024.69
2019-01-20T08:49:29.219Z,101023.52
2019-01-20T08:51:39.516Z,101022.75
2019-01-20T08:53:47.188Z,101023.60
2019-01-20T08:55:55.391Z,101019.97
2019-01-20T08:58:03.441Z,101019.27
2019-01-20T09:00:16.163Z,101020.64
2019-01-20T09:02:24.057Z,101025.02
2019-01-20T09:04:31.838Z,101027.67
2019-01-20T09:06:39.110Z,101018.06
2019-01-20T09:08:46.836Z,101019.17
2019-01-20T09:10:54.203Z,101020.89
2019-01-20T09:13:04.100Z,101020.16
2019-01-20T09:15:12.017Z,101022.34
2019-01-20T09:17:19.788Z,101023.39
2019-01-20T09:19:27.269Z,101015.45
2019-01-20T09:21:35.400Z,101012.60
2019-01-20T09:23:43.720Z,101018.11
2019-01-20T09:25:51.232Z,101018.65
2019-01-20T09:28:01.071Z,101013.60
2019-01-20T09:30:14.022Z,101015.06
2019-01-20T09:32:21.472Z,101017.75
2019-01-20T09:34:29.093Z,101013.48
2019-01-20T09:36:36.439Z,101016.78
2019-01-20T09:38:44.687Z,101019.07
2019-01-20T09:40:52.383Z,101017.92
2019-01-20T09:43:01.172Z,101019.70
2019-01-20T09:45:15.138Z,101012.86
2019-01-20T09:47:23.141Z,101012.09
2019-01-20T09:49:31.059Z,101010.23
2019-01-20T09:51:39.113Z,101004.70
2019-01-20T09:53:47.546Z,101007.70
2019-01-20T09:55:55.976Z,101009.31
2019-01-20T09:58:04.377Z,101009.55
2019-01-20T10:00:17.079Z,101004.13
2019-01-20T10:02:25.762Z,100996.03
2019-01-20T10:04:34.035Z,100997.62
2019-01-20T10:06:42.409Z,100996.52
2019-01-20T10:08:50.911Z,100990.55
2019-01-20T10:10:59.449Z,100987.94
2019-01-20T10:13:07.773Z,100987.33
2019-01-20T10:15:16.300Z,100988.05
2019-01-20T10:17:24.672Z,100990.55
2019-01-20T10:19:31.971Z,100995.23
2019-01-20T10:21:39.462Z,100989.18
2019-01-20T10:23:46.847Z,100986.20
2019-01-20T10:25:54.078Z,100983.23
2019-01-20T10:28:01.434Z,100982.85
2019-01-20T10:30:15.717Z,100984.68
2019-01-20T10:32:23.274Z,100985.41
2019-01-20T10:34:31.307Z,100986.72
2019-01-20T10:36:38.909Z,100983.13
2019-01-20T10:38:46.335Z,100978.84
2019-01-20T10:40:53.772Z,100978.81
2019-01-20T10:43:01.301Z,100974.03
2019-01-20T10:45:10.294Z,100973.59
2019-01-20T10:47:18.156Z,100972.75
2019-01-20T10:49:25.599Z,100968.75
2019-01-20T10:51:33.319Z,100968.05
2019-01-20T10:53:40.822Z,100964.50
2019-01-20T10:55:48.276Z,100968.97
2019-01-20T10:57:56.027Z,100966.30
2019-01-20T11:00:03.718Z,100970.58
2019-01-20T11:02:11.488Z,100958.05
2019-01-20T11:04:19.006Z,100963.27
2019-01-20T11:06:26.612Z,100956.84
2019-01-20T11:08:34.649Z,100960.38
2019-01-20T11:10:42.898Z,100960.34
2019-01-20T11:12:51.271Z,100958.63
2019-01-20T11:14:59.774Z,100956.96
2019-01-20T11:17:08.460Z,100957.38
2019-01-20T11:19:16.154Z,100955.23
2019-01-20T11:21:24.540Z,100957.19
2019-01-20T11:23:33.427Z,100950.36
2019-01-20T11:25:45.987Z,100947.30
2019-01-20T11:27:54.178Z,100949.80
2019-01-20T11:30:03.194Z,100951.72
2019-01-20T11:32:10.555Z,100955.16
2019-01-20T11:34:19.217Z,100953.38
2019-01-20T11:36:27.359Z,100951.19
2019-01-20T11:38:35.021Z,100951.19
2019-01-20T11:40:42.769Z,100945.58
2019-01-20T11:42:50.816Z,100947.34
2019-01-20T11:44:58.400Z,100949.07
2019-01-20T11:47:06.068Z,100946.02
2019-01-20T11:49:13.855Z,100935.25
2019-01-20T11:51:21.546Z,100941.72
2019-01-20T11:53:29.888Z,100941.78
2019-01-20T11:55:38.297Z,100946.55
2019-01-20T11:57:46.124Z,100942.69
2019-01-20T11:59:53.893Z,100941.41
2019-01-20T12:02:02.450Z,100932.32
2019-01-20T12:04:10.253Z,100932.75
2019-01-20T12:06:18.226Z,100928.85
2019-01-20T12:08:30.585Z,100928.00
2019-01-20T12:10:35.612Z,100935.78
2019-01-20T12:12:46.417Z,100934.01
2019-01-20T12:14:53.895Z,100930.55
2019-01-20T12:17:01.828Z,100927.98
2019-01-20T12:19:09.230Z,100922.41
2019-01-20T12:21:18.040Z,100918.51
2019-01-20T12:23:25.325Z,100922.81
2019-01-20T12:25:32.855Z,100920.71
2019-01-20T12:27:41.267Z,100923.73
2019-01-20T12:29:51.896Z,100920.67
2019-01-20T12:32:00.615Z,100924.58
2019-01-20T12:34:08.816Z,100916.85
2019-01-20T12:36:16.858Z,100918.13
2019-01-20T12:38:24.927Z,100911.64
2019-01-20T12:40:45.892Z,100918.56
2019-01-20T12:42:53.795Z,100915.98
2019-01-20T12:45:02.299Z,100909.97
2019-01-20T12:47:11.910Z,100914.30
2019-01-20T12:49:19.820Z,100908.28
2019-01-20T12:51:28.616Z,100905.72
2019-01-20T12:53:36.813Z,100901.39
2019-01-20T12:55:44.664Z,100904.02
2019-01-20T12:57:52.355Z,100897.98
2019-01-20T12:59:59.682Z,100904.02
2019-01-20T13:02:06.968Z,100904.03
2019-01-20T13:04:14.319Z,100909.23
2019-01-20T13:06:22.327Z,100913.50
2019-01-20T13:08:29.878Z,100909.16
2019-01-20T13:10:37.805Z,100908.33
2019-01-20T13:12:45.807Z,100915.23
2019-01-20T13:14:54.135Z,100907.92
2019-01-20T13:17:02.691Z,100920.44
2019-01-20T13:19:11.604Z,100916.13
2019-01-20T13:21:20.972Z,100919.58
2019-01-20T13:23:28.938Z,100914.41
2019-01-20T13:25:37.194Z,100913.55
2019-01-20T13:27:45.550Z,100909.63
2019-01-20T13:29:54.485Z,100916.98
2019-01-20T13:32:03.068Z,100916.98
2019-01-20T13:34:10.832Z,100920.88
2019-01-20T13:36:19.093Z,100922.16
2019-01-20T13:38:29.057Z,100918.28
2019-01-20T13:40:45.483Z,100922.16
2019-01-20T13:42:54.376Z,100923.47
2019-01-20T13:45:03.067Z,100921.31
2019-01-20T13:47:11.558Z,100920.46
2019-01-20T13:49:19.964Z,100925.64
2019-01-20T13:51:29.775Z,100919.59
2019-01-20T13:53:38.389Z,100915.28
2019-01-20T13:55:46.643Z,100918.30
2019-01-20T13:57:54.820Z,100924.76
2019-01-20T14:00:02.749Z,100924.32
2019-01-20T14:02:10.842Z,100923.88
2019-01-20T14:04:19.236Z,100919.13
2019-01-20T14:06:27.240Z,100917.40
2019-01-20T14:08:34.412Z,100923.85
2019-01-20T14:10:41.701Z,100919.12
2019-01-20T14:12:48.990Z,100920.41
2019-01-20T14:14:56.330Z,100922.97
2019-01-20T14:17:03.789Z,100923.83
2019-01-20T14:19:11.653Z,100923.81
2019-01-20T14:21:19.143Z,100921.23
2019-01-20T14:23:26.643Z,100911.73
2019-01-20T14:25:34.299Z,100921.22
2019-01-20T14:27:41.584Z,100919.91
2019-01-20T14:29:48.877Z,100919.48
2019-01-20T14:31:56.220Z,100918.63
2019-01-20T14:34:03.520Z,100911.30
2019-01-20T14:36:10.944Z,100918.62
2019-01-20T14:38:18.218Z,100916.92
2019-01-20T14:40:25.438Z,100911.74
2019-01-20T14:42:32.637Z,100920.36
2019-01-20T14:44:39.758Z,100922.08
2019-01-20T14:46:46.843Z,100916.91
2019-01-20T14:48:54.542Z,100917.77
2019-01-20T14:51:01.799Z,100918.63
2019-01-20T14:53:09.434Z,100926.38
2019-01-20T14:55:16.845Z,100927.22
2019-01-20T14:57:24.037Z,100922.06
2019-01-20T14:59:31.235Z,100928.11
2019-01-20T15:01:38.524Z,100929.41
2019-01-20T15:03:45.769Z,100925.94
2019-01-20T15:05:52.996Z,100926.78
2019-01-20T15:08:00.596Z,100925.06
2019-01-20T15:10:10.003Z,100920.30
2019-01-20T15:12:17.141Z,100929.33
2019-01-20T15:14:24.296Z,100924.10
2019-01-20T15:16:31.771Z,100927.55
2019-01-20T15:18:39.077Z,100927.56
2019-01-20T15:20:46.763Z,100925.80
2019-01-20T15:22:53.940Z,100928.37
2019-01-20T15:25:01.934Z,100928.31
2019-01-20T15:27:09.490Z,100929.14
2019-01-20T15:29:16.567Z,100922.67
2019-01-20T15:31:23.610Z,100926.11
2019-01-20T15:33:31.835Z,100931.66
2019-01-20T15:35:39.353Z,100927.34
2019-01-20T15:37:47.045Z,100934.17
2019-01-20T15:39:54.643Z,100932.86
2019-01-20T15:42:02.122Z,100928.97
2019-01-20T15:44:09.849Z,100931.56
2019-01-20T15:46:17.418Z,100936.34
2019-01-20T15:48:25.086Z,100938.05
2019-01-20T15:50:33.510Z,100941.06
2019-01-20T15:52:40.901Z,100939.70
2019-01-20T15:54:48.323Z,100943.94
2019-01-20T15:56:55.863Z,100941.41
2019-01-20T15:59:03.556Z,100953.91
2019-01-20T16:01:10.788Z,100950.88
2019-01-20T16:03:18.024Z,100944.82
2019-01-20T16:05:26.381Z,100951.25
2019-01-20T16:07:33.725Z,100950.42
2019-01-20T16:09:40.874Z,100949.98
2019-01-20T16:11:48.196Z,100945.16
2019-01-20T16:13:56.414Z,100952.04
2019-01-20T16:16:04.276Z,100952.43
2019-01-20T16:18:14.318Z,100949.04
2019-01-20T16:20:21.355Z,100952.96
2019-01-20T16:22:28.910Z,100960.24
2019-01-20T16:24:36.618Z,100963.73
2019-01-20T16:26:44.286Z,100960.71
2019-01-20T16:28:51.849Z,100958.58
2019-01-20T16:30:59.328Z,100960.30
2019-01-20T16:33:06.624Z,100957.70
2019-01-20T16:35:14.827Z,100964.17
2019-01-20T16:37:22.511Z,100969.74
2019-01-20T16:39:30.053Z,100970.65
2019-01-20T16:41:37.490Z,100967.64
2019-01-20T16:43:45.632Z,100971.41
2019-01-20T16:45:53.728Z,100971.92
2019-01-20T16:48:01.115Z,100972.77
2019-01-20T16:50:11.614Z,100977.48
2019-01-20T16:52:20.026Z,100984.78
2019-01-20T16:54:28.825Z,100981.32
2019-01-20T16:56:37.676Z,100978.27
2019-01-20T16:58:45.772Z,100986.91
2019-01-20T17:00:54.322Z,100984.77
2019-01-20T17:03:02.323Z,100978.27
2019-01-20T17:05:12.611Z,100978.33
2019-01-20T17:07:20.630Z,100985.61
2019-01-20T17:09:29.594Z,100981.24
2019-01-20T17:11:38.052Z,100978.67
2019-01-20T17:13:46.755Z,100994.13
2019-01-20T17:15:54.728Z,100995.83
2019-01-20T17:18:02.105Z,100992.91
2019-01-20T17:20:10.885Z,100991.16
2019-01-20T17:22:19.034Z,100993.68
2019-01-20T17:24:27.468Z,100994.06
2019-01-20T17:26:35.649Z,100993.66
2019-01-20T17:28:45.548Z,100987.67
2019-01-20T17:30:53.674Z,100998.45
2019-01-20T17:33:01.474Z,100990.72
2019-01-20T17:35:11.093Z,100988.59
2019-01-20T17:37:19.444Z,100989.87
2019-01-20T17:39:27.632Z,100986.41
2019-01-20T17:41:35.931Z,100993.27
2019-01-20T17:43:44.587Z,100996.30
2019-01-20T17:45:52.364Z,100995.05
2019-01-20T17:48:00.730Z,100994.16
2019-01-20T17:50:14.695Z,101002.73
2019-01-20T17:52:23.262Z,101005.38
2019-01-20T17:54:31.253Z,100999.33
2019-01-20T17:56:39.485Z,101005.75
2019-01-20T17:58:48.053Z,101008.31
2019-01-20T18:01:05.968Z,101013.55
2019-01-20T18:03:14.365Z,101015.63
2019-01-20T18:05:24.514Z,101015.25
2019-01-20T18:07:32.253Z,101020.78
2019-01-20T18:09:39.961Z,101021.66
2019-01-20T18:11:48.839Z,101019.56
2019-01-20T18:13:56.734Z,101017.36
2019-01-20T18:16:04.775Z,101021.64
2019-01-20T18:18:13.026Z,101022.48
2019-01-20T18:20:24.072Z,101016.81
2019-01-20T18:22:32.331Z,101010.83
2019-01-20T18:24:40.930Z,101013.34
2019-01-20T18:26:49.747Z,101018.09
2019-01-20T18:28:57.769Z,101016.91
2019-01-20T18:31:06.010Z,101017.75
2019-01-20T18:33:14.397Z,101018.53
2019-01-20T18:35:23.342Z,101023.74
2019-01-20T18:37:31.053Z,101019.44
2019-01-20T18:39:39.054Z,101023.70
2019-01-20T18:41:46.953Z,101020.23
2019-01-20T18:43:54.601Z,101022.89
2019-01-20T18:46:02.594Z,101026.39
2019-01-20T18:48:10.231Z,101040.18
2019-01-20T18:50:21.154Z,101030.61
2019-01-20T18:52:29.243Z,101030.66
2019-01-20T18:54:36.778Z,101036.66
2019-01-20T18:56:44.627Z,101034.56
2019-01-20T18:58:52.385Z,101033.72
2019-01-20T19:01:00.300Z,101030.20
2019-01-20T19:03:07.647Z,101041.08
2019-01-20T19:05:16.589Z,101053.09
2019-01-20T19:07:24.253Z,101050.86
2019-01-20T19:09:31.751Z,101047.81
2019-01-20T19:11:40.453Z,101045.72
2019-01-20T19:13:48.354Z,101040.94
2019-01-20T19:15:56.208Z,101037.95
2019-01-20T19:18:06.603Z,101040.17
2019-01-20T19:20:24.670Z,101036.73
2019-01-20T19:22:32.913Z,101034.98
2019-01-20T19:24:40.766Z,101040.05
2019-01-20T19:26:48.451Z,101037.50
2019-01-20T19:29:02.800Z,101029.63
2019-01-20T19:31:04.869Z,101034.03
2019-01-20T19:33:14.736Z,101029.10
2019-01-20T19:35:22.987Z,101031.27
2019-01-20T19:37:32.329Z,101032.59
2019-01-20T19:39:40.313Z,101038.19
2019-01-20T19:41:48.428Z,101041.39
2019-01-20T19:43:56.109Z,101044.86
2019-01-20T19:46:06.113Z,101043.14
2019-01-20T19:48:20.094Z,101049.27
2019-01-20T19:50:23.808Z,101049.63
2019-01-20T19:52:31.372Z,101050.08
2019-01-20T19:54:39.885Z,101050.42
2019-01-20T19:56:47.662Z,101052.55
2019-01-20T19:58:55.124Z,101059.45
2019-01-20T20:01:02.609Z,101063.38
2019-01-20T20:03:10.832Z,101084.00
2019-01-20T20:05:20.380Z,101075.09
2019-01-20T20:07:28.031Z,101073.70
2019-01-20T20:09:35.715Z,101079.94
2019-01-20T20:11:43.404Z,101083.97
2019-01-20T20:13:50.991Z,101086.81
2019-01-20T20:15:58.714Z,101091.91
2019-01-20T20:18:06.689Z,101094.85
2019-01-20T20:20:14.646Z,101098.26
2019-01-20T20:22:22.756Z,101096.54
2019-01-20T20:24:30.506Z,101097.72
2019-01-20T20:26:38.664Z,101104.63
2019-01-20T20:28:46.440Z,101111.94
2019-01-20T20:30:54.018Z,101113.56
2019-01-20T20:33:01.868Z,101106.62
2019-01-20T20:35:09.984Z,101109.70
2019-01-20T20:37:17.625Z,101115.26
2019-01-20T20:39:25.582Z,101112.31
2019-01-20T20:41:33.279Z,101118.95
2019-01-20T20:43:41.644Z,101126.87
2019-01-20T20:45:49.688Z,101122.19
2019-01-20T20:47:57.933Z,101125.51
2019-01-20T20:50:05.769Z,101126.70
2019-01-20T20:52:13.307Z,101125.11
2019-01-20T20:54:20.885Z,101128.55
2019-01-20T20:56:28.402Z,101123.56
2019-01-20T20:58:35.830Z,101127.92
2019-01-20T21:00:46.972Z,101131.86
2019-01-20T21:02:55.008Z,101133.31
2019-01-20T21:05:02.581Z,101130.60
2019-01-20T21:07:10.403Z,101131.95
2019-01-20T21:09:17.987Z,101134.97
2019-01-20T21:11:25.526Z,101129.87
2019-01-20T21:13:33.152Z,101129.13
2019-01-20T21:15:40.515Z,101136.02
2019-01-20T21:17:48.701Z,101146.83
2019-01-20T21:19:56.475Z,101145.39
2019-01-20T21:22:03.719Z,101147.01
2019-01-20T21:24:10.947Z,101150.67
2019-01-20T21:26:18.589Z,101148.59
2019-01-20T21:28:26.094Z,101150.37
2019-01-20T21:30:33.220Z,101157.62
2019-01-20T21:32:40.352Z,101151.16
2019-01-20T21:34:47.513Z,101154.17
2019-01-20T21:36:54.677Z,101163.21
2019-01-20T21:39:02.330Z,101158.51
2019-01-20T21:41:09.500Z,101155.50
2019-01-20T21:43:16.572Z,101154.24
2019-01-20T21:45:24.560Z,101158.14
2019-01-20T21:47:31.788Z,101156.84
2019-01-20T21:49:39.148Z,101154.24
2019-01-20T21:51:46.733Z,101157.25
2019-01-20T21:53:54.168Z,101143.05
2019-01-20T21:56:02.526Z,101149.16
2019-01-20T21:58:09.873Z,101164.59
2019-01-20T22:00:21.219Z,101156.84
2019-01-20T22:02:28.562Z,101159.00
2019-01-20T22:04:37.906Z,101159.95
2019-01-20T22:06:45.061Z,101159.03
2019-01-20T22:08:52.431Z,101153.95
2019-01-20T22:11:00.118Z,101159.89
2019-01-20T22:13:07.225Z,101162.97
2019-01-20T22:15:14.736Z,101171.63
2019-01-20T22:17:22.433Z,101164.75
2019-01-20T22:19:30.047Z,101166.47
2019-01-20T22:21:37.399Z,101162.19
2019-01-20T22:23:45.070Z,101169.54
2019-01-20T22:25:52.615Z,101163.89
2019-01-20T22:27:59.942Z,101163.89
2019-01-20T22:30:14.737Z,101164.72
2019-01-20T22:32:21.912Z,101167.81
2019-01-20T22:34:29.027Z,101168.22
2019-01-20T22:36:36.253Z,101160.93
2019-01-20T22:38:43.376Z,101167.81
2019-01-20T22:40:50.514Z,101168.22
2019-01-20T22:42:59.136Z,101170.83
2019-01-20T22:45:07.427Z,101170.80
2019-01-20T22:47:15.008Z,101162.63
2019-01-20T22:49:22.361Z,101169.08
2019-01-20T22:51:29.439Z,101167.36
2019-01-20T22:53:36.486Z,101160.90
2019-01-20T22:55:43.703Z,101163.48
2019-01-20T22:57:50.877Z,101165.27
2019-01-20T23:02:29.322Z,101170.45
2019-01-20T23:04:36.381Z,101168.28
2019-01-20T23:06:43.477Z,101167.78
2019-01-20T23:08:50.668Z,101174.70
2019-01-20T23:10:57.727Z,101168.67
2019-01-20T23:13:04.939Z,101171.29
2019-01-20T23:15:12.567Z,101163.98
2019-01-20T23:17:19.575Z,101171.66
2019-01-20T23:19:26.614Z,101170.77
2019-01-20T23:21:33.771Z,101173.81
2019-01-20T23:23:40.882Z,101172.95
2019-01-20T23:25:48.010Z,101173.02
2019-01-20T23:27:55.408Z,101181.99
2019-01-20T23:30:02.799Z,101179.47
2019-01-20T23:32:10.166Z,101179.07
2019-01-20T23:34:17.839Z,101188.84
2019-01-20T23:36:25.268Z,101174.30
2019-01-20T23:38:32.335Z,101180.36
2019-01-20T23:40:39.408Z,101179.93
2019-01-20T23:42:46.542Z,101176.05
2019-01-20T23:44:53.617Z,101177.29
2019-01-20T23:47:00.648Z,101183.74
2019-01-20T23:49:07.931Z,101184.23
2019-01-20T23:51:15.343Z,101180.30
2019-01-20T23:53:22.491Z,101183.75
2019-01-20T23:55:29.576Z,101182.88
2019-01-20T23:57:36.989Z,101185.06
2019-01-20T23:59:44.288Z,101180.27
